Time,TemperatureF,DewpointF,PressureIn,WindDirection,WindDirectionDegrees,WindSpeedMPH,WindSpeedGustMPH,Humidity,HourlyPrecipIn,Conditions,Clouds,dailyrainin,SoftwareType,DateUTC
2013-09-18 12:43:00,68.4,55.7,30.12,North,0,1.7,-999.0,64,-99.99,,,0.00,Acu-Link.com,2013-09-18 16:43:00,
2013-09-18 12:59:00,67.8,54.3,30.11,South,180,2.7,-999.0,62,-99.99,,,0.00,Acu-Link.com,2013-09-18 16:59:00,
2013-09-18 13:14:00,69.1,53.2,30.11,WNW,292,2.2,-999.0,57,-99.99,,,0.00,Acu-Link.com,2013-09-18 17:14:00,
2013-09-18 13:29:00,71.1,56.0,30.10,SE,135,2.7,-999.0,59,-99.99,,,0.00,Acu-Link.com,2013-09-18 17:29:00,
2013-09-18 13:44:00,71.8,56.2,30.09,ENE,67,2.2,-999.0,58,-99.99,,,0.00,Acu-Link.com,2013-09-18 17:44:00,
2013-09-18 13:59:00,69.6,54.6,30.08,SSW,202,2.7,-999.0,59,-99.99,,,0.00,Acu-Link.com,2013-09-18 17:59:00,
2013-09-18 14:14:00,71.6,56.0,30.07,SW,225,1.7,-999.0,58,-99.99,,,0.00,Acu-Link.com,2013-09-18 18:14:00,
2013-09-18 14:29:00,71.6,56.0,30.06,South,180,2.2,-999.0,58,-99.99,,,0.00,Acu-Link.com,2013-09-18 18:29:00,
2013-09-18 14:45:00,72.0,56.4,30.06,NE,45,4.7,-999.0,58,-99.99,,,0.00,Acu-Link.com,2013-09-18 18:45:00,
2013-09-18 15:00:00,72.0,55.4,30.04,North,0,2.7,-999.0,56,-99.99,,,0.00,Acu-Link.com,2013-09-18 19:00:00,
2013-09-18 15:15:00,73.0,55.9,30.04,North,0,1.7,-999.0,55,-99.99,,,0.00,Acu-Link.com,2013-09-18 19:15:00,
2013-09-18 15:30:00,73.4,56.2,30.03,NNE,22,1.7,-999.0,55,-99.99,,,0.00,Acu-Link.com,2013-09-18 19:30:00,
2013-09-18 15:45:00,73.4,56.2,30.02,NE,45,4.7,-999.0,55,-99.99,,,0.00,Acu-Link.com,2013-09-18 19:45:00,
2013-09-18 16:00:00,73.4,55.7,30.01,SSW,202,2.7,-999.0,54,-99.99,,,0.00,Acu-Link.com,2013-09-18 20:00:00,
2013-09-18 16:30:00,72.7,54.0,30.01,SW,225,1.7,-999.0,52,-99.99,,,0.00,Acu-Link.com,2013-09-18 20:30:00,
2013-09-18 16:46:00,72.9,54.2,30.00,WNW,292,1.7,-999.0,52,-99.99,,,0.00,Acu-Link.com,2013-09-18 20:46:00,
2013-09-18 17:01:00,71.6,54.1,30.00,South,180,3.2,-999.0,54,-99.99,,,0.00,Acu-Link.com,2013-09-18 21:01:00,
2013-09-18 17:16:00,71.4,53.4,30.00,ESE,112,3.7,-999.0,53,-99.99,,,0.00,Acu-Link.com,2013-09-18 21:16:00,
2013-09-18 17:31:00,71.4,53.9,30.00,South,180,3.2,-999.0,54,-99.99,,,0.00,Acu-Link.com,2013-09-18 21:31:00,
2013-09-18 17:46:00,71.4,53.4,30.00,South,180,5.3,-999.0,53,-99.99,,,0.00,Acu-Link.com,2013-09-18 21:46:00,
2013-09-18 18:01:00,70.9,53.9,30.00,SSE,157,2.2,-999.0,55,-99.99,,,0.00,Acu-Link.com,2013-09-18 22:01:00,
2013-09-18 18:46:00,67.3,52.0,30.00,SSW,202,0.0,-999.0,58,-99.99,,,0.00,Acu-Link.com,2013-09-18 22:46:00,
2013-09-18 19:01:00,65.1,52.6,30.00,NNE,22,1.7,-999.0,64,-99.99,,,0.00,Acu-Link.com,2013-09-18 23:01:00,
2013-09-18 19:17:00,62.6,52.3,29.99,SSW,202,0.0,-999.0,69,-99.99,,,0.00,Acu-Link.com,2013-09-18 23:17:00,
2013-09-18 19:47:00,59.0,51.4,30.00,SW,225,0.0,-999.0,76,-99.99,,,0.00,Acu-Link.com,2013-09-18 23:47:00,
2013-09-18 20:02:00,57.6,51.1,30.00,North,0,1.1,-999.0,79,-99.99,,,0.00,Acu-Link.com,2013-09-19 00:02:00,
2013-09-18 20:17:00,56.5,51.1,30.00,North,0,1.7,-999.0,82,-99.99,,,0.00,Acu-Link.com,2013-09-19 00:17:00,
2013-09-18 20:47:00,56.1,51.0,30.02,NNE,22,2.2,-999.0,83,-99.99,,,0.00,Acu-Link.com,2013-09-19 00:47:00,
2013-09-18 21:02:00,55.6,50.8,30.03,SE,135,1.7,-999.0,84,-99.99,,,0.00,Acu-Link.com,2013-09-19 01:02:00,
2013-09-18 21:17:00,54.3,50.8,30.03,SSW,202,0.0,-999.0,88,-99.99,,,0.00,Acu-Link.com,2013-09-19 01:17:00,
2013-09-18 21:33:00,54.1,50.6,30.02,SSW,202,1.1,-999.0,88,-99.99,,,0.00,Acu-Link.com,2013-09-19 01:33:00,
2013-09-18 21:48:00,53.4,50.5,30.03,SE,135,0.0,-999.0,90,-99.99,,,0.00,Acu-Link.com,2013-09-19 01:48:00,
2013-09-18 22:03:00,52.2,49.9,30.02,NW,315,0.0,-999.0,92,-99.99,,,0.00,Acu-Link.com,2013-09-19 02:03:00,
2013-09-18 22:18:00,51.3,50.2,30.04,NW,315,0.0,-999.0,96,-99.99,,,0.00,Acu-Link.com,2013-09-19 02:18:00,
2013-09-18 22:33:00,50.2,49.4,30.03,WSW,247,0.0,-999.0,97,-99.99,,,0.00,Acu-Link.com,2013-09-19 02:33:00,
2013-09-18 22:48:00,49.3,48.8,30.03,West,270,0.0,-999.0,98,-99.99,,,0.00,Acu-Link.com,2013-09-19 02:48:00,
2013-09-18 23:03:00,48.6,48.1,30.04,ENE,67,0.0,-999.0,98,-99.99,,,0.00,Acu-Link.com,2013-09-19 03:03:00,
2013-09-18 23:18:00,48.0,47.5,30.04,WSW,247,0.0,-999.0,98,-99.99,,,0.00,Acu-Link.com,2013-09-19 03:18:00,
2013-09-18 23:49:00,46.6,46.1,30.03,West,270,0.0,-999.0,98,-99.99,,,0.00,Acu-Link.com,2013-09-19 03:49:00,